Mid Ohio Valley Regional Airport
KPKB : now visible

Airfield :











YOU CAN JOIN US ON...

 
LOGIN :

Register | Disclaimer

   EN    FR    IT 

 









Legend :    VFR   Marginal VFR   IFR   Intensive IFR   Very Intensive IFR
Visi :
Ceiling :
>= 8 km
>= 3000ft
5 to 8 km
1000 to 3000 ft
1500m to 5 km
500 to 1000 ft
800 to 1500m
200 to 500 ft
< 800m
< 200 ft
Symbols :   Thunderstorms  Fog  Heavy snow  Heavy precipitations  Wind > 20 kt






- Airport Elevation : 858 ft
- IATA code : PKB


KPKB - Mid Ohio Valley Regional

CURRENT METAR :
  • 090353Z AUTO 00000KT 10SM FEW120 08/04 A3008 RMK AO2 SLP186 T00830044

EXPIRED METARs :
  • 090253Z 00000KT 10SM CLR 08/04 A3009 RMK AO2 SLP192 T00830044 50002
  • 090153Z 00000KT 10SM CLR 09/04 A3010 RMK AO2 SLP196 T00890039

TAF KPKB
Valid from the 09 at 02:00 until the 10 at 00:00 UTC


090208Z 0902/0924 00000KT P6SM BKN250
FM090800 08003KT P6SM -RA OVC050
FM091200 10007KT P6SM OVC040
FM091500 15007KT P6SM BKN035
FM091800 18011G19KT P6SM VCSH OVC050
PROB30 0918/0924 5SM SHRA BKN025
KZID FIR / North America



MET'MAP, your aeronautical weather chart ! - Copyright ORBIFLY December 2007 - Disclaimer

ORBIFLY MET'MAP TEAM :

Programming & Development : Alexandra Zaïnal
Concept & original design : Baudouin d'Aumeries
Assistance for programming : Marc-Olivier Méhu
Technical & hardware support : Manuel Goepfert

Contact : metmap@orbifly.com




SOURCES & CREDITS :

   NOAA       Earth
Advisory